sensor_id;sensor_type;location;lat;lon;timestamp;P1;durP1;ratioP1;P2;durP2;ratioP2
1204;SDS011;592;48.764;9.174;2023-02-28T00:00:54;5.73;;;3.60;;
1204;SDS011;592;48.764;9.174;2023-02-28T00:03:21;6.60;;;4.23;;
1204;SDS011;592;48.764;9.174;2023-02-28T00:05:48;7.93;;;4.13;;
1204;SDS011;592;48.764;9.174;2023-02-28T00:08:14;6.67;;;3.73;;
1204;SDS011;592;48.764;9.174;2023-02-28T00:10:41;9.97;;;4.23;;
1204;SDS011;592;48.764;9.174;2023-02-28T00:13:08;6.83;;;3.60;;
1204;SDS011;592;48.764;9.174;2023-02-28T00:15:37;6.70;;;4.10;;
1204;SDS011;592;48.764;9.174;2023-02-28T00:18:03;7.70;;;4.00;;
1204;SDS011;592;48.764;9.174;2023-02-28T00:20:30;7.10;;;3.90;;
1204;SDS011;592;48.764;9.174;2023-02-28T00:22:57;7.20;;;4.40;;
1204;SDS011;592;48.764;9.174;2023-02-28T00:25:25;6.07;;;3.93;;
1204;SDS011;592;48.764;9.174;2023-02-28T00:27:51;5.00;;;3.50;;
1204;SDS011;592;48.764;9.174;2023-02-28T00:30:19;6.10;;;3.60;;
1204;SDS011;592;48.764;9.174;2023-02-28T00:32:48;7.57;;;3.83;;
1204;SDS011;592;48.764;9.174;2023-02-28T00:35:15;6.43;;;4.00;;
1204;SDS011;592;48.764;9.174;2023-02-28T00:37:42;6.83;;;3.93;;
1204;SDS011;592;48.764;9.174;2023-02-28T00:40:09;6.03;;;3.50;;
1204;SDS011;592;48.764;9.174;2023-02-28T00:42:37;8.00;;;3.77;;
1204;SDS011;592;48.764;9.174;2023-02-28T00:45:05;7.20;;;3.70;;
1204;SDS011;592;48.764;9.174;2023-02-28T00:47:33;6.60;;;3.60;;
1204;SDS011;592;48.764;9.174;2023-02-28T00:50:01;5.17;;;3.20;;
1204;SDS011;592;48.764;9.174;2023-02-28T00:52:28;7.60;;;3.63;;
1204;SDS011;592;48.764;9.174;2023-02-28T00:54:55;7.90;;;4.07;;
1204;SDS011;592;48.764;9.174;2023-02-28T00:57:21;7.43;;;4.33;;
1204;SDS011;592;48.764;9.174;2023-02-28T00:59:48;5.77;;;3.67;;
1204;SDS011;592;48.764;9.174;2023-02-28T01:02:15;8.70;;;3.77;;
1204;SDS011;592;48.764;9.174;2023-02-28T01:04:43;6.60;;;4.07;;
1204;SDS011;592;48.764;9.174;2023-02-28T01:07:11;6.20;;;3.57;;
1204;SDS011;592;48.764;9.174;2023-02-28T01:09:39;6.97;;;3.80;;
1204;SDS011;592;48.764;9.174;2023-02-28T01:12:06;5.53;;;3.50;;
1204;SDS011;592;48.764;9.174;2023-02-28T01:14:33;9.07;;;4.17;;
1204;SDS011;592;48.764;9.174;2023-02-28T01:17:01;6.60;;;3.70;;
1204;SDS011;592;48.764;9.174;2023-02-28T01:19:27;7.23;;;3.80;;
1204;SDS011;592;48.764;9.174;2023-02-28T01:21:54;7.27;;;4.03;;
1204;SDS011;592;48.764;9.174;2023-02-28T01:24:22;7.70;;;3.90;;
1204;SDS011;592;48.764;9.174;2023-02-28T01:26:49;9.80;;;4.17;;
1204;SDS011;592;48.764;9.174;2023-02-28T01:29:15;7.20;;;3.83;;
1204;SDS011;592;48.764;9.174;2023-02-28T01:31:42;8.53;;;4.40;;
1204;SDS011;592;48.764;9.174;2023-02-28T01:34:09;11.10;;;4.47;;
1204;SDS011;592;48.764;9.174;2023-02-28T01:36:35;9.97;;;4.63;;
1204;SDS011;592;48.764;9.174;2023-02-28T01:39:02;6.40;;;3.87;;
1204;SDS011;592;48.764;9.174;2023-02-28T01:41:31;8.60;;;4.10;;
1204;SDS011;592;48.764;9.174;2023-02-28T01:44:01;7.70;;;4.03;;
1204;SDS011;592;48.764;9.174;2023-02-28T01:46:29;10.37;;;4.43;;
1204;SDS011;592;48.764;9.174;2023-02-28T01:48:59;9.57;;;4.23;;
1204;SDS011;592;48.764;9.174;2023-02-28T01:51:31;7.70;;;4.63;;
1204;SDS011;592;48.764;9.174;2023-02-28T01:54:03;9.83;;;4.67;;
1204;SDS011;592;48.764;9.174;2023-02-28T01:56:40;8.57;;;4.43;;
1204;SDS011;592;48.764;9.174;2023-02-28T01:59:10;7.70;;;4.47;;
1204;SDS011;592;48.764;9.174;2023-02-28T02:01:40;8.37;;;4.90;;
1204;SDS011;592;48.764;9.174;2023-02-28T02:04:07;8.53;;;4.53;;
1204;SDS011;592;48.764;9.174;2023-02-28T02:06:36;8.47;;;4.30;;
1204;SDS011;592;48.764;9.174;2023-02-28T02:09:05;8.40;;;4.57;;
1204;SDS011;592;48.764;9.174;2023-02-28T02:11:32;7.90;;;4.10;;
1204;SDS011;592;48.764;9.174;2023-02-28T02:14:21;7.10;;;4.50;;
1204;SDS011;592;48.764;9.174;2023-02-28T02:17:01;8.93;;;5.97;;
1204;SDS011;592;48.764;9.174;2023-02-28T02:20:03;8.07;;;4.47;;
1204;SDS011;592;48.764;9.174;2023-02-28T02:25:52;11.10;;;4.80;;
1204;SDS011;592;48.764;9.174;2023-02-28T02:28:34;10.93;;;4.63;;
1204;SDS011;592;48.764;9.174;2023-02-28T02:31:37;7.97;;;4.53;;
1204;SDS011;592;48.764;9.174;2023-02-28T02:34:44;7.67;;;4.87;;
1204;SDS011;592;48.764;9.174;2023-02-28T02:37:21;10.07;;;5.50;;
1204;SDS011;592;48.764;9.174;2023-02-28T02:39:59;6.80;;;4.20;;
1204;SDS011;592;48.764;9.174;2023-02-28T02:42:31;7.67;;;5.43;;
1204;SDS011;592;48.764;9.174;2023-02-28T02:45:06;10.33;;;5.17;;
1204;SDS011;592;48.764;9.174;2023-02-28T02:47:37;7.20;;;4.87;;
1204;SDS011;592;48.764;9.174;2023-02-28T02:50:08;9.87;;;6.30;;
1204;SDS011;592;48.764;9.174;2023-02-28T02:52:40;7.67;;;5.00;;
1204;SDS011;592;48.764;9.174;2023-02-28T02:55:11;9.77;;;5.50;;
1204;SDS011;592;48.764;9.174;2023-02-28T02:57:42;10.70;;;5.07;;
1204;SDS011;592;48.764;9.174;2023-02-28T03:00:13;10.67;;;5.27;;
1204;SDS011;592;48.764;9.174;2023-02-28T03:02:42;8.20;;;4.87;;
1204;SDS011;592;48.764;9.174;2023-02-28T03:05:14;8.73;;;4.77;;
1204;SDS011;592;48.764;9.174;2023-02-28T03:07:45;7.43;;;4.90;;
1204;SDS011;592;48.764;9.174;2023-02-28T03:10:31;10.37;;;5.57;;
1204;SDS011;592;48.764;9.174;2023-02-28T03:13:04;8.40;;;5.03;;
1204;SDS011;592;48.764;9.174;2023-02-28T03:15:40;8.70;;;5.30;;
1204;SDS011;592;48.764;9.174;2023-02-28T03:18:16;7.60;;;5.20;;
1204;SDS011;592;48.764;9.174;2023-02-28T03:20:53;9.13;;;5.23;;
1204;SDS011;592;48.764;9.174;2023-02-28T03:23:29;7.60;;;5.13;;
1204;SDS011;592;48.764;9.174;2023-02-28T03:26:04;16.10;;;5.97;;
1204;SDS011;592;48.764;9.174;2023-02-28T03:28:36;8.10;;;5.20;;
1204;SDS011;592;48.764;9.174;2023-02-28T03:31:12;10.33;;;5.53;;
1204;SDS011;592;48.764;9.174;2023-02-28T03:33:44;9.40;;;6.10;;
1204;SDS011;592;48.764;9.174;2023-02-28T03:36:21;9.53;;;5.60;;
1204;SDS011;592;48.764;9.174;2023-02-28T03:38:56;10.50;;;6.10;;
1204;SDS011;592;48.764;9.174;2023-02-28T03:41:28;8.60;;;5.67;;
1204;SDS011;592;48.764;9.174;2023-02-28T03:43:59;7.90;;;5.10;;
1204;SDS011;592;48.764;9.174;2023-02-28T03:46:31;8.57;;;5.77;;
1204;SDS011;592;48.764;9.174;2023-02-28T03:49:03;11.97;;;5.43;;
1204;SDS011;592;48.764;9.174;2023-02-28T03:51:38;9.23;;;5.50;;
1204;SDS011;592;48.764;9.174;2023-02-28T03:54:09;10.33;;;5.43;;
1204;SDS011;592;48.764;9.174;2023-02-28T03:56:40;9.60;;;5.97;;
1204;SDS011;592;48.764;9.174;2023-02-28T03:59:13;8.60;;;5.43;;
1204;SDS011;592;48.764;9.174;2023-02-28T04:01:44;9.50;;;5.57;;
1204;SDS011;592;48.764;9.174;2023-02-28T04:04:14;11.27;;;5.90;;
1204;SDS011;592;48.764;9.174;2023-02-28T04:06:43;10.53;;;6.27;;
1204;SDS011;592;48.764;9.174;2023-02-28T04:09:11;9.83;;;5.70;;
1204;SDS011;592;48.764;9.174;2023-02-28T04:11:40;8.87;;;5.13;;
1204;SDS011;592;48.764;9.174;2023-02-28T04:14:09;9.40;;;5.83;;
1204;SDS011;592;48.764;9.174;2023-02-28T04:16:37;12.40;;;5.77;;
1204;SDS011;592;48.764;9.174;2023-02-28T04:19:07;8.00;;;5.27;;
1204;SDS011;592;48.764;9.174;2023-02-28T04:21:35;11.23;;;6.50;;
1204;SDS011;592;48.764;9.174;2023-02-28T04:24:06;8.83;;;5.80;;
1204;SDS011;592;48.764;9.174;2023-02-28T04:26:33;8.30;;;5.43;;
1204;SDS011;592;48.764;9.174;2023-02-28T04:29:02;12.00;;;5.93;;
1204;SDS011;592;48.764;9.174;2023-02-28T04:31:30;11.93;;;6.33;;
1204;SDS011;592;48.764;9.174;2023-02-28T04:33:57;11.30;;;5.77;;
1204;SDS011;592;48.764;9.174;2023-02-28T04:36:24;10.50;;;6.60;;
1204;SDS011;592;48.764;9.174;2023-02-28T04:38:51;8.87;;;6.37;;
1204;SDS011;592;48.764;9.174;2023-02-28T04:41:20;10.37;;;6.37;;
1204;SDS011;592;48.764;9.174;2023-02-28T04:43:47;10.20;;;6.40;;
1204;SDS011;592;48.764;9.174;2023-02-28T04:46:14;9.90;;;6.33;;
1204;SDS011;592;48.764;9.174;2023-02-28T04:48:42;14.13;;;5.97;;
1204;SDS011;592;48.764;9.174;2023-02-28T04:51:10;10.87;;;6.30;;
1204;SDS011;592;48.764;9.174;2023-02-28T04:53:39;8.80;;;6.27;;
1204;SDS011;592;48.764;9.174;2023-02-28T04:56:07;9.23;;;5.80;;
1204;SDS011;592;48.764;9.174;2023-02-28T04:58:38;11.00;;;6.50;;
1204;SDS011;592;48.764;9.174;2023-02-28T05:01:06;13.37;;;6.73;;
1204;SDS011;592;48.764;9.174;2023-02-28T05:03:45;12.20;;;6.30;;
1204;SDS011;592;48.764;9.174;2023-02-28T05:06:12;11.43;;;6.40;;
1204;SDS011;592;48.764;9.174;2023-02-28T05:08:39;11.57;;;6.07;;
1204;SDS011;592;48.764;9.174;2023-02-28T05:11:07;9.57;;;6.10;;
1204;SDS011;592;48.764;9.174;2023-02-28T05:13:47;13.33;;;6.40;;
1204;SDS011;592;48.764;9.174;2023-02-28T05:16:14;9.00;;;6.00;;
1204;SDS011;592;48.764;9.174;2023-02-28T05:18:41;12.93;;;5.83;;
1204;SDS011;592;48.764;9.174;2023-02-28T05:21:18;12.60;;;6.80;;
1204;SDS011;592;48.764;9.174;2023-02-28T05:23:50;10.17;;;6.07;;
1204;SDS011;592;48.764;9.174;2023-02-28T05:26:17;11.70;;;6.80;;
1204;SDS011;592;48.764;9.174;2023-02-28T05:28:43;12.63;;;7.10;;
1204;SDS011;592;48.764;9.174;2023-02-28T05:31:11;12.17;;;6.50;;
1204;SDS011;592;48.764;9.174;2023-02-28T05:33:39;11.17;;;5.90;;
1204;SDS011;592;48.764;9.174;2023-02-28T05:36:06;11.97;;;7.07;;
1204;SDS011;592;48.764;9.174;2023-02-28T05:38:33;10.30;;;6.53;;
1204;SDS011;592;48.764;9.174;2023-02-28T05:41:00;10.20;;;6.63;;
1204;SDS011;592;48.764;9.174;2023-02-28T05:43:30;11.00;;;7.00;;
1204;SDS011;592;48.764;9.174;2023-02-28T05:45:57;14.10;;;7.10;;
1204;SDS011;592;48.764;9.174;2023-02-28T05:48:25;9.47;;;6.00;;
1204;SDS011;592;48.764;9.174;2023-02-28T05:50:51;9.37;;;6.80;;
1204;SDS011;592;48.764;9.174;2023-02-28T05:53:18;11.83;;;7.10;;
1204;SDS011;592;48.764;9.174;2023-02-28T05:55:45;12.37;;;6.80;;
1204;SDS011;592;48.764;9.174;2023-02-28T05:58:11;15.30;;;7.67;;
1204;SDS011;592;48.764;9.174;2023-02-28T06:00:38;15.97;;;7.60;;
1204;SDS011;592;48.764;9.174;2023-02-28T06:03:05;12.70;;;7.27;;
1204;SDS011;592;48.764;9.174;2023-02-28T06:05:33;15.60;;;7.20;;
1204;SDS011;592;48.764;9.174;2023-02-28T06:07:59;11.97;;;6.97;;
1204;SDS011;592;48.764;9.174;2023-02-28T06:10:26;12.87;;;7.57;;
1204;SDS011;592;48.764;9.174;2023-02-28T06:12:53;10.63;;;6.70;;
1204;SDS011;592;48.764;9.174;2023-02-28T06:15:19;11.90;;;6.60;;
1204;SDS011;592;48.764;9.174;2023-02-28T06:17:46;10.70;;;6.20;;
1204;SDS011;592;48.764;9.174;2023-02-28T06:20:13;12.93;;;5.90;;
1204;SDS011;592;48.764;9.174;2023-02-28T06:22:41;12.67;;;7.17;;
1204;SDS011;592;48.764;9.174;2023-02-28T06:28:14;12.20;;;7.40;;
1204;SDS011;592;48.764;9.174;2023-02-28T06:30:41;13.50;;;7.00;;
1204;SDS011;592;48.764;9.174;2023-02-28T06:33:08;14.27;;;7.53;;
1204;SDS011;592;48.764;9.174;2023-02-28T06:35:35;14.57;;;7.40;;
1204;SDS011;592;48.764;9.174;2023-02-28T06:38:03;11.03;;;7.60;;
1204;SDS011;592;48.764;9.174;2023-02-28T06:40:29;11.53;;;7.27;;
1204;SDS011;592;48.764;9.174;2023-02-28T06:42:59;12.40;;;7.30;;
1204;SDS011;592;48.764;9.174;2023-02-28T06:45:26;13.53;;;7.30;;
1204;SDS011;592;48.764;9.174;2023-02-28T06:47:52;16.50;;;7.50;;
1204;SDS011;592;48.764;9.174;2023-02-28T06:50:19;13.20;;;7.50;;
1204;SDS011;592;48.764;9.174;2023-02-28T06:52:46;14.83;;;7.57;;
1204;SDS011;592;48.764;9.174;2023-02-28T06:55:14;10.87;;;7.23;;
1204;SDS011;592;48.764;9.174;2023-02-28T06:57:41;13.87;;;7.57;;
1204;SDS011;592;48.764;9.174;2023-02-28T07:00:09;15.30;;;8.33;;
1204;SDS011;592;48.764;9.174;2023-02-28T07:02:37;12.70;;;8.30;;
1204;SDS011;592;48.764;9.174;2023-02-28T07:05:04;17.20;;;8.43;;
1204;SDS011;592;48.764;9.174;2023-02-28T07:07:31;12.27;;;7.20;;
1204;SDS011;592;48.764;9.174;2023-02-28T07:09:58;17.50;;;8.53;;
1204;SDS011;592;48.764;9.174;2023-02-28T07:12:26;14.33;;;7.93;;
1204;SDS011;592;48.764;9.174;2023-02-28T07:14:53;19.00;;;8.67;;
1204;SDS011;592;48.764;9.174;2023-02-28T07:17:20;13.60;;;7.83;;
1204;SDS011;592;48.764;9.174;2023-02-28T07:19:47;11.90;;;6.90;;
1204;SDS011;592;48.764;9.174;2023-02-28T07:22:14;14.33;;;8.60;;
1204;SDS011;592;48.764;9.174;2023-02-28T07:24:40;14.63;;;9.10;;
1204;SDS011;592;48.764;9.174;2023-02-28T07:27:07;11.90;;;7.70;;
1204;SDS011;592;48.764;9.174;2023-02-28T07:29:35;12.97;;;8.50;;
1204;SDS011;592;48.764;9.174;2023-02-28T07:32:03;19.30;;;9.93;;
1204;SDS011;592;48.764;9.174;2023-02-28T07:34:30;15.17;;;9.27;;
1204;SDS011;592;48.764;9.174;2023-02-28T07:36:56;16.00;;;9.60;;
1204;SDS011;592;48.764;9.174;2023-02-28T07:39:23;14.87;;;8.33;;
1204;SDS011;592;48.764;9.174;2023-02-28T07:41:50;14.23;;;8.90;;
1204;SDS011;592;48.764;9.174;2023-02-28T07:46:57;17.50;;;9.40;;
1204;SDS011;592;48.764;9.174;2023-02-28T07:49:24;22.07;;;8.70;;
1204;SDS011;592;48.764;9.174;2023-02-28T07:51:51;11.83;;;7.80;;
1204;SDS011;592;48.764;9.174;2023-02-28T07:54:18;11.37;;;7.50;;
1204;SDS011;592;48.764;9.174;2023-02-28T07:56:44;15.20;;;9.03;;
1204;SDS011;592;48.764;9.174;2023-02-28T07:59:11;13.00;;;8.60;;
1204;SDS011;592;48.764;9.174;2023-02-28T08:01:37;15.70;;;9.40;;
1204;SDS011;592;48.764;9.174;2023-02-28T08:04:05;14.10;;;7.93;;
1204;SDS011;592;48.764;9.174;2023-02-28T08:06:32;14.57;;;9.00;;
1204;SDS011;592;48.764;9.174;2023-02-28T08:08:59;12.67;;;9.10;;
1204;SDS011;592;48.764;9.174;2023-02-28T08:11:26;16.00;;;9.30;;
1204;SDS011;592;48.764;9.174;2023-02-28T08:13:52;14.50;;;9.40;;
1204;SDS011;592;48.764;9.174;2023-02-28T08:16:21;17.13;;;8.50;;
1204;SDS011;592;48.764;9.174;2023-02-28T08:18:48;16.00;;;8.27;;
1204;SDS011;592;48.764;9.174;2023-02-28T08:21:16;14.67;;;9.23;;
1204;SDS011;592;48.764;9.174;2023-02-28T08:23:43;16.33;;;8.83;;
1204;SDS011;592;48.764;9.174;2023-02-28T08:26:12;14.47;;;9.00;;
1204;SDS011;592;48.764;9.174;2023-02-28T08:28:38;18.20;;;10.00;;
1204;SDS011;592;48.764;9.174;2023-02-28T08:31:09;19.60;;;10.47;;
1204;SDS011;592;48.764;9.174;2023-02-28T08:33:36;15.40;;;9.50;;
1204;SDS011;592;48.764;9.174;2023-02-28T08:36:05;18.97;;;9.47;;
1204;SDS011;592;48.764;9.174;2023-02-28T08:38:34;15.97;;;9.50;;
1204;SDS011;592;48.764;9.174;2023-02-28T08:41:02;16.80;;;9.27;;
1204;SDS011;592;48.764;9.174;2023-02-28T08:43:32;14.97;;;8.40;;
1204;SDS011;592;48.764;9.174;2023-02-28T08:45:59;16.03;;;9.07;;
1204;SDS011;592;48.764;9.174;2023-02-28T08:48:26;18.07;;;8.37;;
1204;SDS011;592;48.764;9.174;2023-02-28T08:50:54;14.20;;;8.77;;
1204;SDS011;592;48.764;9.174;2023-02-28T08:53:21;13.57;;;8.87;;
1204;SDS011;592;48.764;9.174;2023-02-28T08:55:56;17.43;;;10.77;;
1204;SDS011;592;48.764;9.174;2023-02-28T08:58:23;17.37;;;10.20;;
1204;SDS011;592;48.764;9.174;2023-02-28T09:00:50;18.43;;;9.90;;
1204;SDS011;592;48.764;9.174;2023-02-28T09:03:16;16.30;;;9.37;;
1204;SDS011;592;48.764;9.174;2023-02-28T09:05:51;15.17;;;9.77;;
1204;SDS011;592;48.764;9.174;2023-02-28T09:08:18;23.87;;;10.53;;
1204;SDS011;592;48.764;9.174;2023-02-28T09:10:45;16.17;;;10.20;;
1204;SDS011;592;48.764;9.174;2023-02-28T09:13:13;16.67;;;10.80;;
1204;SDS011;592;48.764;9.174;2023-02-28T09:15:39;17.40;;;10.00;;
1204;SDS011;592;48.764;9.174;2023-02-28T09:18:06;18.27;;;10.00;;
1204;SDS011;592;48.764;9.174;2023-02-28T09:20:33;16.40;;;10.00;;
1204;SDS011;592;48.764;9.174;2023-02-28T09:23:03;16.20;;;10.17;;
1204;SDS011;592;48.764;9.174;2023-02-28T09:25:30;15.63;;;9.90;;
1204;SDS011;592;48.764;9.174;2023-02-28T09:27:57;15.77;;;10.40;;
1204;SDS011;592;48.764;9.174;2023-02-28T09:30:25;17.23;;;10.23;;
1204;SDS011;592;48.764;9.174;2023-02-28T09:32:52;17.20;;;8.90;;
1204;SDS011;592;48.764;9.174;2023-02-28T09:35:18;15.50;;;8.87;;
1204;SDS011;592;48.764;9.174;2023-02-28T09:37:46;18.57;;;11.03;;
1204;SDS011;592;48.764;9.174;2023-02-28T09:40:13;20.53;;;11.43;;
1204;SDS011;592;48.764;9.174;2023-02-28T09:42:43;15.20;;;9.80;;
1204;SDS011;592;48.764;9.174;2023-02-28T09:45:14;15.43;;;10.13;;
1204;SDS011;592;48.764;9.174;2023-02-28T09:47:49;17.03;;;10.27;;
1204;SDS011;592;48.764;9.174;2023-02-28T09:50:22;15.70;;;9.90;;
1204;SDS011;592;48.764;9.174;2023-02-28T09:52:58;17.13;;;10.40;;
1204;SDS011;592;48.764;9.174;2023-02-28T09:55:28;16.90;;;9.80;;
1204;SDS011;592;48.764;9.174;2023-02-28T09:57:59;17.83;;;9.87;;
1204;SDS011;592;48.764;9.174;2023-02-28T10:00:28;18.07;;;10.50;;
1204;SDS011;592;48.764;9.174;2023-02-28T10:03:06;16.27;;;10.30;;
1204;SDS011;592;48.764;9.174;2023-02-28T10:05:48;17.13;;;9.73;;
1204;SDS011;592;48.764;9.174;2023-02-28T10:08:19;15.10;;;10.40;;
1204;SDS011;592;48.764;9.174;2023-02-28T10:10:51;14.40;;;9.97;;
1204;SDS011;592;48.764;9.174;2023-02-28T10:13:23;14.63;;;9.77;;
1204;SDS011;592;48.764;9.174;2023-02-28T10:15:54;16.47;;;9.60;;
1204;SDS011;592;48.764;9.174;2023-02-28T10:18:26;15.53;;;9.97;;
1204;SDS011;592;48.764;9.174;2023-02-28T10:21:05;16.10;;;10.10;;
1204;SDS011;592;48.764;9.174;2023-02-28T10:23:39;14.87;;;9.83;;
1204;SDS011;592;48.764;9.174;2023-02-28T10:26:09;15.57;;;10.07;;
1204;SDS011;592;48.764;9.174;2023-02-28T10:28:40;15.40;;;10.27;;
1204;SDS011;592;48.764;9.174;2023-02-28T10:31:10;15.70;;;9.80;;
1204;SDS011;592;48.764;9.174;2023-02-28T10:33:42;16.83;;;10.83;;
1204;SDS011;592;48.764;9.174;2023-02-28T10:36:10;16.00;;;10.53;;
1204;SDS011;592;48.764;9.174;2023-02-28T10:38:41;19.60;;;10.17;;
1204;SDS011;592;48.764;9.174;2023-02-28T10:41:10;16.10;;;10.97;;
1204;SDS011;592;48.764;9.174;2023-02-28T10:43:39;15.17;;;10.60;;
1204;SDS011;592;48.764;9.174;2023-02-28T10:46:10;16.50;;;10.80;;
1204;SDS011;592;48.764;9.174;2023-02-28T10:48:59;16.23;;;10.60;;
1204;SDS011;592;48.764;9.174;2023-02-28T10:51:34;20.63;;;11.97;;
1204;SDS011;592;48.764;9.174;2023-02-28T10:54:03;14.70;;;9.60;;
1204;SDS011;592;48.764;9.174;2023-02-28T10:56:30;16.07;;;10.90;;
1204;SDS011;592;48.764;9.174;2023-02-28T10:58:59;14.43;;;9.77;;
1204;SDS011;592;48.764;9.174;2023-02-28T11:01:34;16.60;;;10.40;;
1204;SDS011;592;48.764;9.174;2023-02-28T11:04:05;17.20;;;10.73;;
1204;SDS011;592;48.764;9.174;2023-02-28T11:06:44;17.67;;;10.07;;
1204;SDS011;592;48.764;9.174;2023-02-28T11:09:15;18.93;;;10.47;;
1204;SDS011;592;48.764;9.174;2023-02-28T11:11:47;17.70;;;11.70;;
1204;SDS011;592;48.764;9.174;2023-02-28T11:14:18;18.87;;;10.57;;
1204;SDS011;592;48.764;9.174;2023-02-28T11:16:46;16.70;;;11.30;;
1204;SDS011;592;48.764;9.174;2023-02-28T11:19:17;16.77;;;10.93;;
1204;SDS011;592;48.764;9.174;2023-02-28T11:21:50;15.90;;;10.10;;
1204;SDS011;592;48.764;9.174;2023-02-28T11:24:22;18.50;;;10.50;;
1204;SDS011;592;48.764;9.174;2023-02-28T11:26:51;16.73;;;10.10;;
1204;SDS011;592;48.764;9.174;2023-02-28T11:29:19;15.40;;;9.80;;
1204;SDS011;592;48.764;9.174;2023-02-28T11:32:00;17.20;;;10.30;;
1204;SDS011;592;48.764;9.174;2023-02-28T11:34:31;18.93;;;11.47;;
1204;SDS011;592;48.764;9.174;2023-02-28T11:36:58;18.40;;;10.47;;
1204;SDS011;592;48.764;9.174;2023-02-28T11:39:29;15.87;;;10.07;;
1204;SDS011;592;48.764;9.174;2023-02-28T11:42:00;16.63;;;10.20;;
1204;SDS011;592;48.764;9.174;2023-02-28T11:44:41;16.90;;;10.83;;
1204;SDS011;592;48.764;9.174;2023-02-28T11:47:25;14.60;;;10.03;;
1204;SDS011;592;48.764;9.174;2023-02-28T11:50:04;17.13;;;11.03;;
1204;SDS011;592;48.764;9.174;2023-02-28T11:52:48;17.30;;;11.53;;
1204;SDS011;592;48.764;9.174;2023-02-28T11:55:19;15.60;;;10.50;;
1204;SDS011;592;48.764;9.174;2023-02-28T11:58:07;20.03;;;11.27;;
1204;SDS011;592;48.764;9.174;2023-02-28T12:00:57;17.60;;;10.90;;
1204;SDS011;592;48.764;9.174;2023-02-28T12:03:34;16.93;;;11.20;;
1204;SDS011;592;48.764;9.174;2023-02-28T12:06:15;14.70;;;10.60;;
1204;SDS011;592;48.764;9.174;2023-02-28T12:08:51;14.87;;;10.87;;
1204;SDS011;592;48.764;9.174;2023-02-28T12:11:30;16.67;;;11.63;;
1204;SDS011;592;48.764;9.174;2023-02-28T12:14:26;15.73;;;10.10;;
1204;SDS011;592;48.764;9.174;2023-02-28T12:17:06;19.10;;;11.60;;
1204;SDS011;592;48.764;9.174;2023-02-28T12:19:44;16.93;;;11.77;;
1204;SDS011;592;48.764;9.174;2023-02-28T12:22:30;16.33;;;10.50;;
1204;SDS011;592;48.764;9.174;2023-02-28T12:25:18;16.30;;;10.00;;
1204;SDS011;592;48.764;9.174;2023-02-28T12:27:50;14.60;;;10.57;;
1204;SDS011;592;48.764;9.174;2023-02-28T12:30:19;16.10;;;10.20;;
1204;SDS011;592;48.764;9.174;2023-02-28T12:32:50;15.17;;;10.10;;
1204;SDS011;592;48.764;9.174;2023-02-28T12:35:22;15.33;;;10.73;;
1204;SDS011;592;48.764;9.174;2023-02-28T12:37:53;15.93;;;10.80;;
1204;SDS011;592;48.764;9.174;2023-02-28T12:40:25;16.90;;;10.80;;
1204;SDS011;592;48.764;9.174;2023-02-28T12:42:56;18.93;;;11.77;;
1204;SDS011;592;48.764;9.174;2023-02-28T12:45:26;18.30;;;11.10;;
1204;SDS011;592;48.764;9.174;2023-02-28T12:47:59;16.77;;;11.20;;
1204;SDS011;592;48.764;9.174;2023-02-28T12:50:28;13.73;;;9.50;;
1204;SDS011;592;48.764;9.174;2023-02-28T12:52:59;16.33;;;10.40;;
1204;SDS011;592;48.764;9.174;2023-02-28T12:55:30;18.27;;;11.37;;
1204;SDS011;592;48.764;9.174;2023-02-28T12:58:07;16.70;;;11.17;;
1204;SDS011;592;48.764;9.174;2023-02-28T13:00:43;16.40;;;12.20;;
1204;SDS011;592;48.764;9.174;2023-02-28T13:03:27;16.73;;;11.20;;
1204;SDS011;592;48.764;9.174;2023-02-28T13:06:18;19.03;;;10.50;;
1204;SDS011;592;48.764;9.174;2023-02-28T13:09:05;15.23;;;10.93;;
1204;SDS011;592;48.764;9.174;2023-02-28T13:11:39;18.40;;;11.77;;
1204;SDS011;592;48.764;9.174;2023-02-28T13:14:16;16.60;;;10.63;;
1204;SDS011;592;48.764;9.174;2023-02-28T13:16:51;17.67;;;10.20;;
1204;SDS011;592;48.764;9.174;2023-02-28T13:19:22;23.27;;;11.50;;
1204;SDS011;592;48.764;9.174;2023-02-28T13:21:51;14.90;;;10.17;;
1204;SDS011;592;48.764;9.174;2023-02-28T13:24:40;14.00;;;10.43;;
1204;SDS011;592;48.764;9.174;2023-02-28T13:27:22;16.17;;;11.07;;
1204;SDS011;592;48.764;9.174;2023-02-28T13:32:32;16.10;;;11.37;;
1204;SDS011;592;48.764;9.174;2023-02-28T13:38:15;16.50;;;11.27;;
1204;SDS011;592;48.764;9.174;2023-02-28T13:40:50;15.63;;;10.80;;
1204;SDS011;592;48.764;9.174;2023-02-28T13:43:17;15.47;;;11.00;;
1204;SDS011;592;48.764;9.174;2023-02-28T13:46:04;21.17;;;11.57;;
1204;SDS011;592;48.764;9.174;2023-02-28T13:48:34;16.53;;;11.07;;
1204;SDS011;592;48.764;9.174;2023-02-28T13:54:18;16.33;;;10.10;;
1204;SDS011;592;48.764;9.174;2023-02-28T13:57:23;16.93;;;10.77;;
1204;SDS011;592;48.764;9.174;2023-02-28T14:00:05;14.87;;;10.50;;
1204;SDS011;592;48.764;9.174;2023-02-28T14:05:22;15.80;;;11.00;;
1204;SDS011;592;48.764;9.174;2023-02-28T14:07:52;14.47;;;10.20;;
1204;SDS011;592;48.764;9.174;2023-02-28T14:10:23;14.87;;;10.10;;
1204;SDS011;592;48.764;9.174;2023-02-28T14:12:58;15.60;;;10.50;;
1204;SDS011;592;48.764;9.174;2023-02-28T14:15:28;15.10;;;11.57;;
1204;SDS011;592;48.764;9.174;2023-02-28T14:18:29;15.73;;;10.80;;
1204;SDS011;592;48.764;9.174;2023-02-28T14:20:59;16.77;;;11.20;;
1204;SDS011;592;48.764;9.174;2023-02-28T14:23:35;15.63;;;10.47;;
1204;SDS011;592;48.764;9.174;2023-02-28T14:26:28;16.27;;;10.47;;
1204;SDS011;592;48.764;9.174;2023-02-28T14:31:43;15.10;;;10.60;;
1204;SDS011;592;48.764;9.174;2023-02-28T14:34:20;14.63;;;10.87;;
1204;SDS011;592;48.764;9.174;2023-02-28T14:36:57;17.37;;;10.27;;
1204;SDS011;592;48.764;9.174;2023-02-28T14:39:27;15.90;;;10.43;;
1204;SDS011;592;48.764;9.174;2023-02-28T14:41:56;17.10;;;10.93;;
1204;SDS011;592;48.764;9.174;2023-02-28T14:44:28;15.27;;;10.33;;
1204;SDS011;592;48.764;9.174;2023-02-28T14:46:57;15.83;;;10.33;;
1204;SDS011;592;48.764;9.174;2023-02-28T14:49:29;16.30;;;11.03;;
1204;SDS011;592;48.764;9.174;2023-02-28T14:52:02;18.13;;;10.23;;
1204;SDS011;592;48.764;9.174;2023-02-28T14:54:34;14.13;;;10.43;;
1204;SDS011;592;48.764;9.174;2023-02-28T14:57:01;13.90;;;9.80;;
1204;SDS011;592;48.764;9.174;2023-02-28T14:59:29;13.40;;;9.97;;
1204;SDS011;592;48.764;9.174;2023-02-28T15:02:16;15.10;;;10.23;;
1204;SDS011;592;48.764;9.174;2023-02-28T15:04:57;13.90;;;10.13;;
1204;SDS011;592;48.764;9.174;2023-02-28T15:07:25;15.07;;;10.23;;
1204;SDS011;592;48.764;9.174;2023-02-28T15:10:09;15.50;;;10.17;;
1204;SDS011;592;48.764;9.174;2023-02-28T15:12:40;15.57;;;10.93;;
1204;SDS011;592;48.764;9.174;2023-02-28T15:15:14;15.33;;;11.47;;
1204;SDS011;592;48.764;9.174;2023-02-28T15:17:44;15.33;;;10.97;;
1204;SDS011;592;48.764;9.174;2023-02-28T15:20:13;16.97;;;11.37;;
1204;SDS011;592;48.764;9.174;2023-02-28T15:22:41;15.50;;;10.90;;
1204;SDS011;592;48.764;9.174;2023-02-28T15:25:17;15.80;;;10.30;;
1204;SDS011;592;48.764;9.174;2023-02-28T15:27:56;15.43;;;11.20;;
1204;SDS011;592;48.764;9.174;2023-02-28T15:30:26;13.17;;;9.23;;
1204;SDS011;592;48.764;9.174;2023-02-28T15:33:06;15.57;;;11.00;;
1204;SDS011;592;48.764;9.174;2023-02-28T15:35:44;17.00;;;10.57;;
1204;SDS011;592;48.764;9.174;2023-02-28T15:38:14;15.50;;;10.77;;
1204;SDS011;592;48.764;9.174;2023-02-28T15:40:43;16.57;;;10.70;;
1204;SDS011;592;48.764;9.174;2023-02-28T15:43:19;16.30;;;10.87;;
1204;SDS011;592;48.764;9.174;2023-02-28T15:45:51;14.10;;;9.90;;
1204;SDS011;592;48.764;9.174;2023-02-28T15:48:23;20.57;;;11.20;;
1204;SDS011;592;48.764;9.174;2023-02-28T15:50:53;14.77;;;10.50;;
1204;SDS011;592;48.764;9.174;2023-02-28T15:53:23;16.50;;;10.70;;
1204;SDS011;592;48.764;9.174;2023-02-28T15:55:54;17.17;;;10.03;;
1204;SDS011;592;48.764;9.174;2023-02-28T15:58:26;15.23;;;10.30;;
1204;SDS011;592;48.764;9.174;2023-02-28T16:01:00;16.87;;;10.97;;
1204;SDS011;592;48.764;9.174;2023-02-28T16:03:43;16.90;;;11.13;;